Time;durP1;ratioP1;P1;durP2;ratioP2;P2;SDS_P1;SDS_P2;PMS_P1;PMS_P2;Temp;Humidity;BMP_temperature;BMP_pressure;BME280_temperature;BME280_humidity;BME280_pressure;Samples;Min_cycle;Max_cycle;Signal;HPM_P1;HPM_P2
2022/04/20 00:00:52;;;;;;;8.00;6.30;;;6.10;1.00;;;;;;5107262;28;20225;-56
2022/04/20 00:03:18;;;;;;;8.40;7.57;;;6.10;1.00;;;;;;5104062;28;20456;-56
2022/04/20 00:05:44;;;;;;;8.90;6.87;;;6.10;1.00;;;;;;5099736;28;20297;-57
2022/04/20 00:08:09;;;;;;;8.00;6.67;;;6.10;1.00;;;;;;5096945;28;20458;-57
2022/04/20 00:10:35;;;;;;;7.83;7.00;;;6.00;1.00;;;;;;5108708;28;20206;-58
2022/04/20 00:13:00;;;;;;;10.20;7.30;;;6.00;1.00;;;;;;5106277;28;20581;-57
2022/04/20 00:15:26;;;;;;;8.10;7.13;;;6.10;1.00;;;;;;5101568;28;20206;-57
2022/04/20 00:17:52;;;;;;;10.83;7.63;;;6.00;1.00;;;;;;5098430;28;20274;-58
2022/04/20 00:20:18;;;;;;;8.33;7.20;;;6.00;1.00;;;;;;5106382;28;20454;-58
2022/04/20 00:22:44;;;;;;;7.87;6.67;;;5.90;1.00;;;;;;5096437;28;20189;-57
2022/04/20 00:25:09;;;;;;;7.60;6.47;;;5.90;1.00;;;;;;5098582;28;20197;-57
2022/04/20 00:27:36;;;;;;;6.60;6.00;;;5.90;1.00;;;;;;5108016;28;20281;-57
2022/04/20 00:30:10;;;;;;;7.57;6.83;;;5.90;1.00;;;;;;5105825;28;20189;-57
2022/04/20 00:32:36;;;;;;;7.80;6.47;;;5.80;1.00;;;;;;5098177;28;20432;-57
2022/04/20 00:35:01;;;;;;;7.30;6.60;;;5.70;1.00;;;;;;5092767;28;20454;-58
2022/04/20 00:37:27;;;;;;;7.37;6.60;;;5.60;1.00;;;;;;5106352;28;20452;-57
2022/04/20 00:39:53;;;;;;;9.37;6.90;;;5.60;1.00;;;;;;5097455;28;20194;-57
2022/04/20 00:42:23;;;;;;;7.60;6.80;;;5.60;1.00;;;;;;5103942;28;20936;-57
2022/04/20 00:44:51;;;;;;;8.33;7.10;;;5.60;1.00;;;;;;5102773;28;20182;-57
2022/04/20 00:47:18;;;;;;;7.33;6.40;;;5.50;1.00;;;;;;5100680;28;20449;-57
2022/04/20 00:49:46;;;;;;;7.17;6.40;;;5.60;1.00;;;;;;5104770;28;20447;-57
2022/04/20 00:52:12;;;;;;;8.43;6.87;;;5.50;1.00;;;;;;5097103;28;21495;-57
2022/04/20 00:54:38;;;;;;;8.30;7.50;;;5.50;1.00;;;;;;5098062;28;20443;-57
2022/04/20 00:57:04;;;;;;;8.27;6.50;;;5.60;1.00;;;;;;5103304;28;20298;-56
2022/04/20 00:59:31;;;;;;;6.80;6.20;;;5.50;1.00;;;;;;5097952;28;20194;-57
2022/04/20 01:01:58;;;;;;;7.70;6.67;;;5.50;1.00;;;;;;5103657;28;20455;-57
2022/04/20 01:04:25;;;;;;;6.67;5.53;;;5.50;1.00;;;;;;5107254;28;20862;-57
2022/04/20 01:06:51;;;;;;;9.43;6.80;;;5.40;1.00;;;;;;5102015;28;20452;-58
2022/04/20 01:09:17;;;;;;;7.10;6.40;;;5.40;1.00;;;;;;5102193;28;20515;-57
2022/04/20 01:11:43;;;;;;;8.70;6.93;;;5.30;1.00;;;;;;5100744;28;21726;-58
2022/04/20 01:14:10;;;;;;;8.97;7.27;;;5.40;1.00;;;;;;5102974;28;20431;-57
2022/04/20 01:16:36;;;;;;;9.33;7.00;;;5.30;1.00;;;;;;5096002;28;20806;-57
2022/04/20 01:19:02;;;;;;;8.17;6.60;;;5.40;1.00;;;;;;5097882;28;20444;-57
2022/04/20 01:21:28;;;;;;;7.53;6.83;;;5.40;1.00;;;;;;5100816;28;20206;-57
2022/04/20 01:23:54;;;;;;;7.20;6.40;;;5.30;1.00;;;;;;5099372;28;20777;-56
2022/04/20 01:26:19;;;;;;;8.07;6.30;;;5.30;1.00;;;;;;5097416;28;20457;-56
2022/04/20 01:28:46;;;;;;;10.13;6.37;;;5.30;1.00;;;;;;5102319;28;20186;-57
2022/04/20 01:31:16;;;;;;;8.70;6.90;;;5.30;1.00;;;;;;5103423;28;20191;-57
2022/04/20 01:33:43;;;;;;;10.67;6.53;;;5.30;1.00;;;;;;5107645;28;20864;-57
2022/04/20 01:36:10;;;;;;;6.57;5.97;;;5.20;1.00;;;;;;5102830;28;20479;-57
2022/04/20 01:38:39;;;;;;;6.90;6.17;;;5.20;1.00;;;;;;5096212;28;20527;-57
2022/04/20 01:41:07;;;;;;;7.70;7.00;;;5.10;1.00;;;;;;5094512;28;20550;-57
2022/04/20 01:43:33;;;;;;;7.17;6.47;;;5.10;1.00;;;;;;5095568;28;20440;-57
2022/04/20 01:45:58;;;;;;;11.63;7.53;;;5.10;1.00;;;;;;5105459;28;20448;-58
2022/04/20 01:48:24;;;;;;;7.40;6.60;;;5.10;1.00;;;;;;5096209;28;20190;-57
2022/04/20 01:53:33;;;;;;;8.60;7.67;;;5.10;1.00;;;;;;5100191;28;20247;-57
2022/04/20 01:56:00;;;;;;;7.03;6.10;;;5.10;1.00;;;;;;5099986;28;20467;-58
2022/04/20 01:58:26;;;;;;;8.40;6.40;;;5.00;1.00;;;;;;5101166;28;20220;-57
2022/04/20 02:00:52;;;;;;;7.60;6.90;;;4.90;1.00;;;;;;5099822;28;20485;-58
2022/04/20 02:03:17;;;;;;;9.07;6.60;;;4.90;1.00;;;;;;5102443;28;20436;-58
2022/04/20 02:05:43;;;;;;;7.40;6.70;;;4.90;1.00;;;;;;5102636;28;20688;-57
2022/04/20 02:08:08;;;;;;;8.63;7.00;;;4.90;1.00;;;;;;5098030;28;20197;-58
2022/04/20 02:10:34;;;;;;;8.97;7.10;;;4.80;1.00;;;;;;5103285;28;20278;-57
2022/04/20 02:13:00;;;;;;;8.57;6.60;;;4.90;1.00;;;;;;5099746;28;20186;-57
2022/04/20 02:15:26;;;;;;;7.60;6.90;;;4.90;1.00;;;;;;5105020;28;20464;-57
2022/04/20 02:17:52;;;;;;;9.30;7.00;;;4.90;1.00;;;;;;5102718;27;20327;-57
2022/04/20 02:20:17;;;;;;;6.83;6.20;;;4.90;1.00;;;;;;5107049;28;20440;-58
2022/04/20 02:22:43;;;;;;;8.17;7.27;;;4.90;1.00;;;;;;5097653;28;20178;-58
2022/04/20 02:25:08;;;;;;;7.87;6.57;;;4.90;1.00;;;;;;5107129;28;20178;-58
2022/04/20 02:27:34;;;;;;;7.30;6.60;;;4.90;1.00;;;;;;5095371;28;20179;-58
2022/04/20 02:29:59;;;;;;;7.47;6.77;;;4.90;1.00;;;;;;5095475;28;20179;-58
2022/04/20 02:32:25;;;;;;;6.77;6.07;;;4.90;1.00;;;;;;5096262;28;20796;-57
2022/04/20 02:34:50;;;;;;;8.60;6.90;;;4.80;1.00;;;;;;5106954;28;20186;-57
2022/04/20 02:37:16;;;;;;;9.10;7.00;;;;;;;;;;5097298;28;20822;-59
2022/04/20 02:39:44;;;;;;;7.00;6.30;;;4.70;1.00;;;;;;5099012;28;20191;-57
2022/04/20 02:42:10;;;;;;;6.93;6.17;;;4.70;1.00;;;;;;5095761;28;20445;-57
2022/04/20 02:44:36;;;;;;;7.17;6.00;;;4.70;1.00;;;;;;5105075;28;20492;-58
2022/04/20 02:47:02;;;;;;;8.47;6.70;;;4.70;1.00;;;;;;5105575;28;20439;-57
2022/04/20 02:49:28;;;;;;;6.80;5.90;;;4.70;1.00;;;;;;5098672;28;20797;-58
2022/04/20 02:51:53;;;;;;;9.50;7.00;;;4.60;1.00;;;;;;5093264;28;20518;-57
2022/04/20 02:54:19;;;;;;;7.00;6.30;;;4.70;1.00;;;;;;5094328;28;20197;-57
2022/04/20 02:56:44;;;;;;;6.97;6.30;;;4.60;1.00;;;;;;5109265;28;20612;-57
2022/04/20 02:59:10;;;;;;;11.30;7.10;;;4.60;1.00;;;;;;5106911;28;20235;-58
2022/04/20 03:01:36;;;;;;;8.50;6.70;;;;;;;;;;5097345;28;20195;-58
2022/04/20 03:04:02;;;;;;;7.17;6.43;;;4.70;1.00;;;;;;5094135;28;20228;-57
2022/04/20 03:06:28;;;;;;;6.87;6.10;;;4.70;1.00;;;;;;5098252;28;20467;-57
2022/04/20 03:08:54;;;;;;;8.00;6.00;;;4.70;1.00;;;;;;5090766;28;20264;-58
2022/04/20 03:11:20;;;;;;;7.27;6.57;;;4.60;1.00;;;;;;5097043;28;20789;-58
2022/04/20 03:13:46;;;;;;;7.80;6.90;;;4.60;1.00;;;;;;5108657;28;20459;-58
2022/04/20 03:16:12;;;;;;;8.50;7.00;;;4.60;1.00;;;;;;5101389;28;20591;-58
2022/04/20 03:18:38;;;;;;;7.40;6.40;;;4.60;1.00;;;;;;5100536;28;20453;-57
2022/04/20 03:21:06;;;;;;;6.73;6.03;;;4.50;1.00;;;;;;5103845;28;20302;-57
2022/04/20 03:23:32;;;;;;;7.10;6.40;;;4.50;1.00;;;;;;5098973;28;20210;-57
2022/04/20 03:25:58;;;;;;;7.80;6.60;;;;;;;;;;5104598;28;20482;-56
2022/04/20 03:28:24;;;;;;;8.60;6.90;;;4.50;1.00;;;;;;5100621;28;20189;-57
2022/04/20 03:30:49;;;;;;;6.90;6.30;;;4.60;1.00;;;;;;5103304;28;20444;-57
2022/04/20 03:33:16;;;;;;;8.60;7.23;;;4.50;1.00;;;;;;5098756;28;20198;-57
2022/04/20 03:35:42;;;;;;;13.23;6.97;;;;;;;;;;5101096;28;20470;-57
2022/04/20 03:38:08;;;;;;;7.37;6.37;;;4.50;1.00;;;;;;5108656;28;20443;-57
2022/04/20 03:40:35;;;;;;;7.43;6.60;;;4.50;1.00;;;;;;5100795;28;20445;-58
2022/04/20 03:43:01;;;;;;;10.43;7.50;;;4.50;1.00;;;;;;5106824;28;20447;-57
2022/04/20 03:45:27;;;;;;;6.50;5.87;;;4.50;1.00;;;;;;5095851;28;20443;-59
2022/04/20 03:47:53;;;;;;;7.00;6.30;;;4.50;1.00;;;;;;5105337;28;20436;-57
2022/04/20 03:50:18;;;;;;;7.73;6.60;;;4.50;1.00;;;;;;5106899;28;20197;-58
2022/04/20 03:52:44;;;;;;;7.90;6.80;;;4.50;1.00;;;;;;5108022;28;20190;-58
2022/04/20 03:55:10;;;;;;;7.43;6.73;;;4.50;1.00;;;;;;5105466;28;20194;-57
2022/04/20 03:57:35;;;;;;;8.97;8.10;;;4.60;1.00;;;;;;5107837;28;20182;-57
2022/04/20 04:00:01;;;;;;;8.63;6.63;;;4.60;1.00;;;;;;5103512;28;20208;-57
2022/04/20 04:02:26;;;;;;;9.20;7.30;;;4.50;1.00;;;;;;5103370;28;20186;-57
2022/04/20 04:04:52;;;;;;;7.83;7.07;;;4.50;1.00;;;;;;5105615;28;20754;-57
2022/04/20 04:07:17;;;;;;;7.77;7.00;;;4.50;1.00;;;;;;5105455;28;20258;-57
2022/04/20 04:09:43;;;;;;;11.27;7.77;;;4.60;1.00;;;;;;5107528;28;20190;-57
2022/04/20 04:12:09;;;;;;;10.40;8.13;;;4.60;1.00;;;;;;5097662;28;20179;-59
2022/04/20 04:14:38;;;;;;;7.80;7.07;;;4.60;1.00;;;;;;5111727;28;20583;-59
2022/04/20 04:17:04;;;;;;;8.20;7.27;;;4.70;1.00;;;;;;5102179;27;20552;-59
2022/04/20 04:19:30;;;;;;;9.70;6.83;;;4.80;1.00;;;;;;5105432;28;20467;-59
2022/04/20 04:21:56;;;;;;;9.00;7.70;;;4.70;1.00;;;;;;5103296;28;20479;-58
2022/04/20 04:24:37;;;;;;;8.13;6.80;;;4.80;1.00;;;;;;5102630;28;20269;-59
2022/04/20 04:27:05;;;;;;;8.03;7.00;;;4.70;1.00;;;;;;5105492;28;20190;-58
2022/04/20 04:29:31;;;;;;;10.70;7.60;;;4.80;1.00;;;;;;5099064;28;20553;-57
2022/04/20 04:31:58;;;;;;;7.87;7.17;;;4.90;1.00;;;;;;5100396;28;20447;-60
2022/04/20 04:34:23;;;;;;;10.13;8.07;;;5.10;1.00;;;;;;5109747;28;20472;-57
2022/04/20 04:36:50;;;;;;;8.53;7.70;;;5.10;1.00;;;;;;5106372;28;20950;-56
2022/04/20 04:39:18;;;;;;;8.30;6.77;;;5.20;1.00;;;;;;5109769;28;20186;-57
2022/04/20 04:41:47;;;;;;;8.87;7.53;;;5.30;1.00;;;;;;5102428;28;20440;-57
2022/04/20 04:44:12;;;;;;;8.63;7.77;;;5.30;1.00;;;;;;5093542;28;20469;-56
2022/04/20 04:49:22;;;;;;;9.00;7.50;;;5.40;1.00;;;;;;5102319;28;20349;-57
2022/04/20 04:51:47;;;;;;;9.10;7.37;;;5.40;1.00;;;;;;5106483;28;20530;-57
2022/04/20 04:54:13;;;;;;;8.70;7.57;;;5.50;1.00;;;;;;5104946;28;20182;-56
2022/04/20 04:56:38;;;;;;;11.40;7.60;;;5.50;1.00;;;;;;5098760;28;20205;-56
2022/04/20 04:59:04;;;;;;;7.67;6.87;;;5.60;1.00;;;;;;5097002;28;20235;-56
2022/04/20 05:01:29;;;;;;;8.40;7.60;;;5.60;1.00;;;;;;5108294;28;20615;-55
2022/04/20 05:03:55;;;;;;;7.70;6.70;;;5.60;1.00;;;;;;5107159;28;20186;-56
2022/04/20 05:06:20;;;;;;;10.07;7.63;;;5.70;1.00;;;;;;5100637;28;20214;-57
2022/04/20 05:08:46;;;;;;;8.53;7.63;;;5.80;1.00;;;;;;5103495;28;20283;-57
2022/04/20 05:11:12;;;;;;;8.50;7.70;;;5.70;1.00;;;;;;5096462;28;20277;-57
2022/04/20 05:13:37;;;;;;;10.20;7.87;;;5.70;1.00;;;;;;5106213;28;20448;-57
2022/04/20 05:16:06;;;;;;;8.10;7.10;;;5.70;1.00;;;;;;5109895;28;20232;-57
2022/04/20 05:18:32;;;;;;;9.50;7.90;;;5.80;1.00;;;;;;5098129;28;20201;-56
2022/04/20 05:20:57;;;;;;;9.17;7.60;;;6.10;1.00;;;;;;5103310;28;20454;-56
2022/04/20 05:23:23;;;;;;;11.73;8.20;;;6.10;1.00;;;;;;5104934;28;20430;-56
2022/04/20 05:25:48;;;;;;;10.00;7.60;;;6.10;1.00;;;;;;5102469;28;20192;-57
2022/04/20 05:28:14;;;;;;;9.70;8.70;;;6.10;1.00;;;;;;5105144;27;20237;-56
2022/04/20 05:30:40;;;;;;;8.50;7.67;;;6.20;1.00;;;;;;5107504;28;20190;-57
2022/04/20 05:33:06;;;;;;;9.27;7.33;;;6.30;1.00;;;;;;5106874;28;20206;-56
2022/04/20 05:35:32;;;;;;;8.80;7.37;;;6.30;1.00;;;;;;5096728;28;20518;-57
2022/04/20 05:43:26;;;;;;;12.30;9.30;;;6.50;1.00;;;;;;5098629;28;20608;-58
2022/04/20 05:45:52;;;;;;;9.90;8.03;;;6.40;1.00;;;;;;5095817;28;20934;-59
2022/04/20 05:48:17;;;;;;;9.63;8.43;;;6.40;1.00;;;;;;5096005;28;20694;-57
2022/04/20 05:50:43;;;;;;;10.10;9.10;;;6.50;1.00;;;;;;5104715;28;20208;-57
2022/04/20 05:53:09;;;;;;;11.97;7.93;;;6.40;1.00;;;;;;5103727;28;20216;-57
2022/04/20 05:55:35;;;;;;;8.37;7.57;;;6.40;1.00;;;;;;5102337;28;20213;-58
2022/04/20 05:58:01;;;;;;;10.10;8.63;;;6.50;1.00;;;;;;5106233;28;20452;-56
2022/04/20 06:00:27;;;;;;;12.63;8.80;;;6.40;1.00;;;;;;5100757;28;20951;-57
2022/04/20 06:02:54;;;;;;;10.17;8.17;;;6.50;1.00;;;;;;5093256;28;20195;-57
2022/04/20 06:05:20;;;;;;;9.97;8.90;;;6.50;1.00;;;;;;5102468;28;20226;-57
2022/04/20 06:07:46;;;;;;;10.00;8.70;;;6.50;1.00;;;;;;5106201;28;20448;-56
2022/04/20 06:10:12;;;;;;;11.97;9.17;;;6.50;1.00;;;;;;5092193;28;21157;-57
2022/04/20 06:12:37;;;;;;;9.40;7.83;;;6.70;1.00;;;;;;5101488;28;20444;-57
2022/04/20 06:15:03;;;;;;;11.00;8.77;;;6.80;1.00;;;;;;5100485;28;20193;-57
2022/04/20 06:17:29;;;;;;;42.93;12.37;;;6.90;1.00;;;;;;5101727;27;20571;-56
2022/04/20 06:19:55;;;;;;;25.00;10.97;;;7.00;1.00;;;;;;5100775;28;20440;-56
2022/04/20 06:22:21;;;;;;;12.97;8.50;;;7.10;1.00;;;;;;5093243;28;20679;-57
2022/04/20 06:24:46;;;;;;;9.30;8.30;;;7.30;1.00;;;;;;5104347;28;20468;-56
2022/04/20 06:27:12;;;;;;;9.13;8.23;;;7.30;1.00;;;;;;5099354;28;20277;-56
2022/04/20 06:29:38;;;;;;;9.50;8.33;;;;;;;;;;5103818;28;20204;-54
2022/04/20 06:32:05;;;;;;;14.70;7.77;;;7.60;1.00;;;;;;5106321;28;20230;-56
2022/04/20 06:34:31;;;;;;;10.63;8.70;;;7.60;1.00;;;;;;5092679;28;20445;-56
2022/04/20 06:36:56;;;;;;;9.60;7.50;;;7.60;1.00;;;;;;5104876;28;20809;-55
2022/04/20 06:39:22;;;;;;;10.40;8.00;;;7.70;1.00;;;;;;5100206;28;20182;-55
2022/04/20 06:41:48;;;;;;;9.80;8.63;;;7.70;1.00;;;;;;5089958;28;20236;-56
2022/04/20 06:44:14;;;;;;;10.30;8.57;;;7.80;1.00;;;;;;5092205;28;20190;-56
2022/04/20 06:46:39;;;;;;;13.27;8.30;;;7.90;1.00;;;;;;5097128;28;20485;-57
2022/04/20 06:49:06;;;;;;;13.17;8.30;;;;;;;;;;5096325;28;20194;-55
2022/04/20 06:58:31;;;;;;;8.97;8.10;;;8.00;1.00;;;;;;5100785;28;20384;-55
2022/04/20 06:59:45;;;;;;;14.37;8.50;;;8.20;1.00;;;;;;5103161;28;20521;-56
2022/04/20 07:02:11;;;;;;;10.60;8.37;;;8.30;1.00;;;;;;5101345;28;20457;-56
2022/04/20 07:04:36;;;;;;;9.93;7.87;;;8.30;1.00;;;;;;5101508;28;20220;-56
2022/04/20 07:07:02;;;;;;;10.43;8.90;;;8.20;1.00;;;;;;5102450;28;20528;-55
2022/04/20 07:09:27;;;;;;;10.80;8.60;;;8.20;1.00;;;;;;5110369;28;20608;-56
2022/04/20 07:11:53;;;;;;;10.60;8.57;;;8.10;1.00;;;;;;5111376;28;20182;-57
2022/04/20 07:14:18;;;;;;;10.23;8.33;;;8.00;1.00;;;;;;5114187;28;20181;-57
2022/04/20 07:16:44;;;;;;;10.27;9.20;;;8.00;1.00;;;;;;5113610;28;20197;-56
2022/04/20 07:19:09;;;;;;;9.83;8.83;;;8.10;1.00;;;;;;5109951;28;20215;-56
2022/04/20 07:21:35;;;;;;;11.03;8.47;;;8.30;1.00;;;;;;5102916;28;20179;-56
2022/04/20 07:24:01;;;;;;;11.30;8.57;;;8.70;1.00;;;;;;5102130;28;20195;-57
2022/04/20 07:26:26;;;;;;;10.50;9.37;;;9.00;1.00;;;;;;5110253;28;20227;-56
2022/04/20 07:28:52;;;;;;;10.97;9.07;;;9.10;1.00;;;;;;5105175;28;20189;-58
2022/04/20 07:31:17;;;;;;;19.00;9.80;;;9.10;1.00;;;;;;5105095;28;20317;-57
2022/04/20 07:33:43;;;;;;;13.67;9.33;;;9.40;1.00;;;;;;5104250;28;20178;-58
2022/04/20 07:36:08;;;;;;;12.27;9.13;;;9.60;1.00;;;;;;5103243;28;20281;-56
2022/04/20 07:38:34;;;;;;;11.60;8.70;;;9.60;1.00;;;;;;5105646;28;20676;-56
2022/04/20 07:41:00;;;;;;;11.00;9.87;;;9.90;1.00;;;;;;5110368;28;20174;-57
2022/04/20 07:43:25;;;;;;;15.53;9.57;;;10.00;1.00;;;;;;5108712;28;20516;-56
2022/04/20 07:45:51;;;;;;;13.10;9.20;;;10.10;1.00;;;;;;5111554;28;20474;-56
2022/04/20 07:48:17;;;;;;;10.27;9.27;;;10.10;1.00;;;;;;5098993;28;20209;-57
2022/04/20 07:50:42;;;;;;;12.50;8.90;;;10.50;1.00;;;;;;5103725;28;20182;-56
2022/04/20 07:53:09;;;;;;;10.40;9.30;;;10.50;1.00;;;;;;5102768;28;20191;-56
2022/04/20 07:55:37;;;;;;;10.30;8.90;;;10.90;1.00;;;;;;5099586;28;20193;-57
2022/04/20 07:58:03;;;;;;;12.87;9.70;;;10.90;1.00;;;;;;5101239;28;20444;-56
2022/04/20 08:00:29;;;;;;;11.10;8.20;;;11.00;1.00;;;;;;5103351;28;20442;-58
2022/04/20 08:03:11;;;;;;;11.27;9.40;;;11.00;1.00;;;;;;5102024;28;20436;-56
2022/04/20 08:05:38;;;;;;;37.83;10.40;;;11.00;1.00;;;;;;5105112;28;20221;-56
2022/04/20 08:08:06;;;;;;;11.17;9.13;;;11.20;1.00;;;;;;5104331;28;20509;-56
2022/04/20 08:10:33;;;;;;;10.33;9.23;;;11.40;1.00;;;;;;5085795;28;20526;-57
2022/04/20 08:14:09;;;;;;;12.20;10.30;;;11.60;1.00;;;;;;5102338;28;20546;-56
2022/04/20 08:15:46;;;;;;;13.37;9.60;;;;;;;;;;5102429;28;20456;-56
2022/04/20 08:18:12;;;;;;;11.20;9.40;;;11.90;1.00;;;;;;5103710;28;20436;-57
2022/04/20 08:20:38;;;;;;;14.27;10.73;;;11.80;1.00;;;;;;5103323;28;20783;-56
2022/04/20 08:23:04;;;;;;;11.20;10.10;;;11.70;1.00;;;;;;5102973;28;20206;-56
2022/04/20 08:25:30;;;;;;;11.47;10.23;;;11.70;1.00;;;;;;5105618;28;20178;-56
2022/04/20 08:27:57;;;;;;;10.13;9.23;;;11.80;1.00;;;;;;5104689;28;20436;-57
2022/04/20 08:30:24;;;;;;;11.03;9.90;;;11.80;1.00;;;;;;5100304;28;20468;-58
2022/04/20 08:32:50;;;;;;;13.87;10.43;;;11.70;1.00;;;;;;5103358;28;20441;-56
2022/04/20 08:35:15;;;;;;;10.70;9.60;;;11.60;1.00;;;;;;5103049;28;20511;-57
2022/04/20 08:37:41;;;;;;;11.33;9.90;;;11.60;1.00;;;;;;5102435;28;20257;-56
2022/04/20 08:40:07;;;;;;;11.63;10.43;;;11.60;1.00;;;;;;5103876;28;20182;-57
2022/04/20 08:42:34;;;;;;;14.40;9.80;;;11.60;1.00;;;;;;5108007;28;20198;-58
2022/04/20 08:45:03;;;;;;;12.37;10.13;;;11.50;1.00;;;;;;5100280;28;20505;-58
2022/04/20 08:47:38;;;;;;;11.70;10.50;;;11.50;1.00;;;;;;5101992;28;20443;-57
2022/04/20 08:50:08;;;;;;;16.10;11.27;;;11.60;1.00;;;;;;5101969;28;20442;-58
2022/04/20 08:52:38;;;;;;;15.47;9.67;;;11.70;1.00;;;;;;5102108;28;20503;-56
2022/04/20 08:55:10;;;;;;;13.73;10.67;;;11.70;1.00;;;;;;5103365;28;20438;-57
2022/04/20 08:57:37;;;;;;;12.30;11.20;;;11.70;1.00;;;;;;5103145;28;20542;-62
2022/04/20 09:00:10;;;;;;;10.33;9.33;;;12.00;1.00;;;;;;5102221;28;20451;-55
2022/04/20 09:02:37;;;;;;;15.20;10.97;;;12.10;1.00;;;;;;5091503;28;20428;-56
2022/04/20 09:05:04;;;;;;;11.00;9.90;;;12.10;1.00;;;;;;5102988;28;20804;-57
2022/04/20 09:07:32;;;;;;;13.97;10.60;;;12.10;1.00;;;;;;5098209;28;20530;-56
2022/04/20 09:10:00;;;;;;;18.57;10.53;;;12.00;1.00;;;;;;5091773;28;20494;-55
2022/04/20 09:12:27;;;;;;;13.77;10.33;;;11.90;1.00;;;;;;5095121;28;20459;-57
2022/04/20 09:14:53;;;;;;;13.97;11.33;;;11.80;1.00;;;;;;5105970;28;21037;-57
2022/04/20 09:17:20;;;;;;;10.80;9.70;;;11.80;1.00;;;;;;5102567;28;20499;-56
2022/04/20 09:19:49;;;;;;;13.10;10.10;;;11.80;1.00;;;;;;5099894;28;20428;-57
2022/04/20 09:22:21;;;;;;;12.60;10.77;;;11.70;1.00;;;;;;5103851;28;20493;-57
2022/04/20 09:25:07;;;;;;;15.30;10.03;;;11.70;1.00;;;;;;5099485;28;20448;-58
2022/04/20 09:27:35;;;;;;;13.90;10.77;;;11.70;1.00;;;;;;5099419;28;20987;-56
2022/04/20 09:30:01;;;;;;;15.83;11.13;;;11.80;1.00;;;;;;5105887;28;20932;-59
2022/04/20 09:32:46;;;;;;;11.30;10.10;;;11.80;1.00;;;;;;5099089;28;20440;-57
2022/04/20 09:35:18;;;;;;;11.80;10.60;;;11.80;1.00;;;;;;5100738;28;20442;-55
2022/04/20 09:37:44;;;;;;;11.80;9.67;;;11.70;1.00;;;;;;5110446;28;20496;-56
2022/04/20 09:40:12;;;;;;;11.53;9.80;;;11.60;1.00;;;;;;5106397;28;20519;-56
2022/04/20 09:43:06;;;;;;;11.17;9.93;;;11.50;1.00;;;;;;5102039;28;20640;-56
2022/04/20 09:45:36;;;;;;;10.90;9.80;;;11.70;1.00;;;;;;5101248;28;20451;-58
2022/04/20 09:51:14;;;;;;;10.57;9.47;;;11.90;1.00;;;;;;5098085;28;20479;-56
2022/04/20 09:53:41;;;;;;;12.50;9.30;;;11.90;1.00;;;;;;5099431;28;20439;-57
2022/04/20 09:56:17;;;;;;;9.27;8.37;;;11.70;1.00;;;;;;5104179;28;20470;-57
2022/04/20 09:58:46;;;;;;;8.30;7.50;;;11.70;1.00;;;;;;5102798;28;20489;-59
2022/04/20 10:01:31;;;;;;;8.27;7.53;;;11.60;1.00;;;;;;5099330;28;20457;-56
2022/04/20 10:03:59;;;;;;;8.47;7.67;;;11.60;1.00;;;;;;5104352;28;20446;-56
2022/04/20 10:06:25;;;;;;;8.80;7.93;;;11.60;1.00;;;;;;5108681;28;20462;-57
2022/04/20 10:08:51;;;;;;;9.63;7.60;;;11.50;1.00;;;;;;5101204;28;20443;-57
2022/04/20 10:11:17;;;;;;;9.03;7.83;;;11.60;1.00;;;;;;5101896;28;20913;-55
2022/04/20 10:13:44;;;;;;;9.60;7.50;;;11.40;1.00;;;;;;5097250;27;20456;-57
2022/04/20 10:16:13;;;;;;;13.17;10.83;;;11.40;1.00;;;;;;5094947;28;20465;-57
2022/04/20 10:18:40;;;;;;;10.00;7.87;;;11.50;1.00;;;;;;5104260;28;21058;-57
2022/04/20 10:21:14;;;;;;;8.47;7.67;;;11.30;1.00;;;;;;5107971;28;20578;-56
2022/04/20 10:23:43;;;;;;;8.57;7.53;;;11.40;1.00;;;;;;5104097;28;20443;-56
2022/04/20 10:26:09;;;;;;;7.37;6.73;;;11.40;1.00;;;;;;5109316;28;20501;-57
2022/04/20 10:28:50;;;;;;;8.23;7.50;;;11.30;1.00;;;;;;5097153;28;20437;-56
2022/04/20 10:31:37;;;;;;;7.80;7.10;;;11.20;1.00;;;;;;5090389;28;20444;-55
2022/04/20 10:34:04;;;;;;;10.13;8.30;;;11.30;1.00;;;;;;5094715;28;20455;-56
2022/04/20 10:36:32;;;;;;;9.13;6.87;;;11.40;1.00;;;;;;5108340;28;20511;-55
2022/04/20 10:39:20;;;;;;;10.27;7.87;;;11.30;1.00;;;;;;5097873;28;20535;-56
2022/04/20 10:42:11;;;;;;;10.80;6.87;;;11.20;1.00;;;;;;5092564;28;20960;-58
2022/04/20 10:44:55;;;;;;;8.40;7.60;;;11.30;1.00;;;;;;5108732;28;20932;-56
2022/04/20 10:47:42;;;;;;;9.47;7.97;;;11.30;1.00;;;;;;5094293;28;20478;-56
2022/04/20 10:50:28;;;;;;;9.90;7.60;;;11.40;1.00;;;;;;5091275;28;20525;-56
2022/04/20 10:53:02;;;;;;;10.57;7.13;;;11.60;1.00;;;;;;5100823;28;20574;-55
2022/04/20 10:55:30;;;;;;;9.37;7.63;;;11.60;1.00;;;;;;5097029;28;20530;-57
2022/04/20 10:57:56;;;;;;;7.33;6.50;;;11.70;1.00;;;;;;5106581;28;20511;-58
2022/04/20 11:00:23;;;;;;;8.50;7.67;;;11.70;1.00;;;;;;5103693;28;20606;-56
2022/04/20 11:02:50;;;;;;;8.47;7.60;;;11.70;1.00;;;;;;5090768;28;20468;-57
2022/04/20 11:05:20;;;;;;;8.10;7.30;;;11.70;1.00;;;;;;5094581;28;20516;-59
2022/04/20 11:08:14;;;;;;;11.40;8.13;;;11.50;1.00;;;;;;5102436;28;20822;-58
2022/04/20 11:10:42;;;;;;;8.60;7.50;;;11.70;1.00;;;;;;5105287;28;20446;-57
2022/04/20 11:19:13;;;;;;;9.20;8.30;;;12.00;1.00;;;;;;5102763;28;20435;-59
2022/04/20 11:21:53;;;;;;;13.80;9.87;;;12.20;1.00;;;;;;5100090;28;20532;-60
2022/04/20 11:24:27;;;;;;;11.73;9.93;;;12.40;1.00;;;;;;5099172;28;21066;-61
2022/04/20 11:26:53;;;;;;;11.40;10.17;;;12.60;1.00;;;;;;5103855;28;20472;-58
2022/04/20 11:29:22;;;;;;;10.27;8.70;;;12.20;1.00;;;;;;5095875;28;20445;-60
2022/04/20 11:31:51;;;;;;;8.73;8.03;;;12.30;1.00;;;;;;5089760;28;20187;-62
2022/04/20 11:34:20;;;;;;;10.00;9.07;;;12.20;1.00;;;;;;5099538;28;20447;-61
2022/04/20 11:36:48;;;;;;;11.63;10.33;;;12.10;1.00;;;;;;5094313;28;20873;-61
2022/04/20 11:39:15;;;;;;;9.47;8.57;;;12.00;1.00;;;;;;5097755;28;20443;-60
2022/04/20 11:41:49;;;;;;;9.63;8.73;;;11.90;1.00;;;;;;5100427;28;20441;-58
2022/04/20 11:44:22;;;;;;;9.60;8.60;;;11.90;1.00;;;;;;5089711;28;20794;-61
2022/04/20 11:46:53;;;;;;;10.80;8.40;;;12.30;1.00;;;;;;5106403;28;20557;-61
2022/04/20 11:49:20;;;;;;;12.40;10.80;;;12.70;1.00;;;;;;5108251;28;20439;-59
2022/04/20 11:51:53;;;;;;;9.20;8.30;;;12.90;1.00;;;;;;5100790;28;20460;-60
2022/04/20 11:54:20;;;;;;;10.20;9.20;;;12.80;1.00;;;;;;5110698;28;21065;-58
2022/04/20 11:56:46;;;;;;;10.60;9.60;;;12.80;1.00;;;;;;5099641;28;20965;-59
2022/04/20 11:59:11;;;;;;;11.43;8.60;;;12.70;1.00;;;;;;5101986;28;20451;-58
2022/04/20 12:01:38;;;;;;;10.17;9.07;;;;;;;;;;5107957;28;20312;-58
2022/04/20 12:04:20;;;;;;;9.63;8.63;;;12.90;1.00;;;;;;5100299;28;20628;-59
2022/04/20 12:07:13;;;;;;;10.70;8.13;;;12.40;1.00;;;;;;5109814;28;20563;-59
2022/04/20 12:09:42;;;;;;;10.73;9.73;;;12.30;1.00;;;;;;5089281;28;20437;-59
2022/04/20 12:12:10;;;;;;;10.67;9.50;;;12.10;1.00;;;;;;5096953;28;20466;-58
2022/04/20 12:14:38;;;;;;;10.60;9.60;;;11.80;1.00;;;;;;5100600;28;20455;-59
2022/04/20 12:17:11;;;;;;;11.07;9.00;;;11.40;1.00;;;;;;5096252;28;20475;-59
2022/04/20 12:19:40;;;;;;;11.07;9.97;;;11.40;1.00;;;;;;5095259;28;20456;-60
2022/04/20 12:22:09;;;;;;;10.77;9.70;;;11.40;1.00;;;;;;5099167;28;20429;-59
2022/04/20 12:24:37;;;;;;;10.80;9.80;;;11.40;1.00;;;;;;5101644;28;20465;-59
2022/04/20 12:27:04;;;;;;;9.57;8.70;;;11.30;1.00;;;;;;5072019;28;20449;-59
2022/04/20 12:29:33;;;;;;;10.40;9.40;;;11.20;1.00;;;;;;5106911;28;20891;-59
2022/04/20 12:32:00;;;;;;;11.23;9.97;;;11.20;1.00;;;;;;5101668;28;20957;-60
2022/04/20 12:34:28;;;;;;;10.80;9.70;;;11.30;1.00;;;;;;5097731;28;20539;-60
2022/04/20 12:36:59;;;;;;;10.80;9.80;;;11.30;1.00;;;;;;5083726;28;20460;-60
2022/04/20 12:39:35;;;;;;;10.70;8.57;;;11.20;1.00;;;;;;5103427;28;20479;-60
2022/04/20 12:42:09;;;;;;;10.77;9.23;;;11.20;1.00;;;;;;5081239;28;20433;-60
2022/04/20 12:44:38;;;;;;;10.20;9.20;;;11.20;1.00;;;;;;5100066;28;20452;-60
2022/04/20 12:47:16;;;;;;;10.77;9.77;;;11.30;1.00;;;;;;5102083;28;20451;-59
2022/04/20 12:50:00;;;;;;;11.03;9.63;;;11.30;1.00;;;;;;5103624;28;20454;-61
2022/04/20 12:52:29;;;;;;;10.90;9.33;;;11.10;1.00;;;;;;5103268;28;20443;-59
2022/04/20 12:55:00;;;;;;;10.77;8.70;;;10.80;1.00;;;;;;5105547;28;20844;-59
2022/04/20 13:03:08;;;;;;;9.87;8.83;;;10.70;1.00;;;;;;5097604;28;20482;-60
2022/04/20 13:05:35;;;;;;;10.73;9.17;;;10.80;1.00;;;;;;5103197;28;20491;-60
2022/04/20 13:08:02;;;;;;;8.40;7.60;;;11.10;1.00;;;;;;5111862;28;20518;-61
2022/04/20 13:10:37;;;;;;;10.67;9.47;;;11.40;1.00;;;;;;5097554;28;20441;-60
2022/04/20 13:13:04;;;;;;;9.50;8.60;;;11.40;1.00;;;;;;5103621;28;20440;-60
2022/04/20 13:15:30;;;;;;;9.97;9.00;;;11.70;1.00;;;;;;5104390;28;20420;-59
2022/04/20 13:17:57;;;;;;;10.63;9.20;;;11.60;1.00;;;;;;5103681;28;20431;-59
2022/04/20 13:20:24;;;;;;;10.90;9.30;;;11.30;1.00;;;;;;5104179;28;20440;-60
2022/04/20 13:22:49;;;;;;;10.30;8.80;;;11.20;1.00;;;;;;5102475;28;20530;-60
2022/04/20 13:27:59;;;;;;;10.80;9.70;;;11.50;1.00;;;;;;5099622;28;20205;-59
2022/04/20 13:30:36;;;;;;;11.00;9.90;;;11.50;1.00;;;;;;5106382;28;20538;-60
2022/04/20 13:33:12;;;;;;;10.60;9.67;;;11.60;1.00;;;;;;5099069;28;20196;-60
2022/04/20 13:35:39;;;;;;;10.50;9.50;;;11.70;1.00;;;;;;5104941;28;20442;-61
2022/04/20 13:38:11;;;;;;;11.20;10.20;;;11.70;1.00;;;;;;5100910;28;20437;-59